カシュガル の空港の天気 - METARとTAF

カシュガル空港 ( ZWSH / KHG ) - 中国 新疆ウイグル自治区カシュガル市
飛行場実況気象(Metar)
観測時間07/18 21:00 CST (07/18 13:00 UTC)
風向・風速北西 8m/s
視程10km以上
天気現象
全天の4割程度の雲 雲底高度 1220m
気温24℃
湿度38%
気圧1013hPa
METARZWSH 181300Z 31008MPS 9999 SCT040CB 24/09 Q1013 RETS NOSIG
過去の天気等 Google飛行場航空写真 Wunderground天気予報

過去48時間のMETAR

飛行場予報(TAF)
発表時間: 7/18 17:09 CST (7/18 09:09 UTC)
予報対象時間: 18日20時 CST ~ 19日20時 CST
風向・風速南南東 4m/s
視程10km以上
全天の4割程度の雲 雲底高度 1220m
18日23時 CST ~ 18日24時 CST に徐々に
風向・風速北北西 4m/s 瞬間風速 9m/s
少しの積乱雲 雲底高度 910m
TAF ZWSH 180909Z 1812/1912 15004MPS 9999 SCT040 TX30/1812Z TN24/1900Z
BECMG 1815/1816 33004G09MPS FEW030CB